createdAt,value
2018-12-16T00:01:37.735Z,30.30
2018-12-16T00:04:15.766Z,42.35
2018-12-16T00:06:53.230Z,47.65
2018-12-16T00:09:28.970Z,50.33
2018-12-16T00:12:05.345Z,64.62
2018-12-16T00:14:41.586Z,37.67
2018-12-16T00:17:17.339Z,52.75
2018-12-16T00:19:53.325Z,52.27
2018-12-16T00:22:30.472Z,47.62
2018-12-16T00:25:07.970Z,35.70
2018-12-16T00:27:43.863Z,50.20
2018-12-16T00:30:19.934Z,45.88
2018-12-16T00:32:55.778Z,36.83
2018-12-16T00:35:32.550Z,37.00
2018-12-16T00:38:08.612Z,43.55
2018-12-16T00:47:41.833Z,36.35
2018-12-16T00:50:17.633Z,47.62
2018-12-16T00:52:53.460Z,46.58
2018-12-16T00:55:29.423Z,50.10
2018-12-16T00:58:06.074Z,52.75
2018-12-16T01:00:41.864Z,44.53
2018-12-16T01:03:18.547Z,49.50
2018-12-16T01:05:54.593Z,60.55
2018-12-16T01:08:31.120Z,75.00
2018-12-16T01:11:07.001Z,73.12
2018-12-16T01:13:47.251Z,84.85
2018-12-16T01:16:24.325Z,84.20
2018-12-16T01:19:00.098Z,100.78
2018-12-16T01:23:00.400Z,76.28
2018-12-16T01:25:36.550Z,92.27
2018-12-16T01:28:12.937Z,71.80
2018-12-16T01:30:49.440Z,99.45
2018-12-16T01:33:26.150Z,85.72
2018-12-16T01:36:01.955Z,90.67
2018-12-16T01:38:38.694Z,90.15
2018-12-16T01:41:14.408Z,106.25
2018-12-16T01:43:50.425Z,111.37
2018-12-16T01:46:26.352Z,108.85
2018-12-16T01:49:03.082Z,103.15
2018-12-16T01:51:38.858Z,104.32
2018-12-16T01:54:14.846Z,74.58
2018-12-16T01:56:50.806Z,103.85
2018-12-16T01:59:26.579Z,105.67
2018-12-16T02:02:02.440Z,111.42
2018-12-16T02:04:38.060Z,107.10
2018-12-16T02:07:13.988Z,68.75
2018-12-16T02:09:49.724Z,85.57
2018-12-16T02:12:26.450Z,73.00
2018-12-16T02:15:03.286Z,92.33
2018-12-16T02:17:39.960Z,85.07
2018-12-16T02:20:15.670Z,97.17
2018-12-16T02:22:56.663Z,96.37
2018-12-16T02:25:29.564Z,92.35
2018-12-16T02:28:05.471Z,106.78
2018-12-16T02:30:41.406Z,107.87
2018-12-16T02:33:18.215Z,88.95
2018-12-16T02:35:53.877Z,93.33
2018-12-16T02:38:30.140Z,99.32
2018-12-16T02:41:06.840Z,85.85
2018-12-16T02:43:42.683Z,86.08
2018-12-16T02:46:17.733Z,94.32
2018-12-16T02:48:54.271Z,81.67
2018-12-16T02:51:29.339Z,73.90
2018-12-16T02:54:05.382Z,76.02
2018-12-16T02:56:41.172Z,84.10
2018-12-16T02:59:17.435Z,87.80
2018-12-16T03:01:54.019Z,74.17
2018-12-16T03:04:29.888Z,72.78
2018-12-16T03:07:05.870Z,78.30
2018-12-16T03:09:42.470Z,80.45
2018-12-16T03:12:17.577Z,72.42
2018-12-16T03:14:53.171Z,70.80
2018-12-16T03:17:28.887Z,76.82
2018-12-16T03:20:05.536Z,69.35
2018-12-16T03:22:43.046Z,72.72
2018-12-16T03:25:18.933Z,76.07
2018-12-16T03:27:55.714Z,66.05
2018-12-16T03:30:32.515Z,70.32
2018-12-16T03:33:09.312Z,73.37
2018-12-16T03:35:46.006Z,71.97
2018-12-16T03:38:21.919Z,73.15
2018-12-16T03:40:58.947Z,67.60
2018-12-16T03:43:35.567Z,63.85
2018-12-16T03:46:11.329Z,65.67
2018-12-16T03:48:46.987Z,69.87
2018-12-16T03:51:22.816Z,60.30
2018-12-16T03:53:58.689Z,64.27
2018-12-16T03:56:34.636Z,63.60
2018-12-16T03:59:18.905Z,68.90
2018-12-16T04:01:57.887Z,64.17
2018-12-16T04:04:34.006Z,58.65
2018-12-16T04:07:10.903Z,59.83
2018-12-16T04:09:47.654Z,55.50
2018-12-16T04:12:24.401Z,56.20
2018-12-16T04:15:00.172Z,55.80
2018-12-16T04:17:36.109Z,47.38
2018-12-16T04:20:11.875Z,56.20
2018-12-16T04:22:49.646Z,49.63
2018-12-16T04:25:25.835Z,50.30
2018-12-16T04:28:02.557Z,56.23
2018-12-16T04:30:38.394Z,50.73
2018-12-16T04:33:14.315Z,53.52
2018-12-16T04:35:50.048Z,48.38
2018-12-16T04:38:26.044Z,51.65
2018-12-16T04:41:01.871Z,51.77
2018-12-16T04:43:37.804Z,48.95
2018-12-16T04:46:13.463Z,46.98
2018-12-16T04:48:49.371Z,53.45
2018-12-16T04:51:25.271Z,51.58
2018-12-16T04:54:00.307Z,43.08
2018-12-16T04:56:36.379Z,56.55
2018-12-16T04:59:12.837Z,54.80
2018-12-16T05:01:48.638Z,56.75
2018-12-16T05:04:24.302Z,53.45
2018-12-16T05:07:00.076Z,47.58
2018-12-16T05:09:35.783Z,53.28
2018-12-16T05:12:11.860Z,53.33
2018-12-16T05:14:47.727Z,55.48
2018-12-16T05:17:23.951Z,54.93
2018-12-16T05:19:59.612Z,61.42
2018-12-16T05:22:35.440Z,60.23
2018-12-16T05:25:11.371Z,61.68
2018-12-16T05:27:47.098Z,59.88
2018-12-16T05:30:24.264Z,64.60
2018-12-16T05:33:00.678Z,53.20
2018-12-16T05:35:36.705Z,62.58
2018-12-16T05:38:13.303Z,58.10
2018-12-16T05:40:49.180Z,65.50
2018-12-16T05:43:25.618Z,60.90
2018-12-16T05:46:01.181Z,64.27
2018-12-16T05:48:37.895Z,68.97
2018-12-16T05:51:16.527Z,65.78
2018-12-16T05:53:53.511Z,65.22
2018-12-16T05:56:29.994Z,68.15
2018-12-16T05:59:06.224Z,66.35
2018-12-16T06:01:41.831Z,71.70
2018-12-16T06:04:19.098Z,64.58
2018-12-16T06:06:57.072Z,68.57
2018-12-16T06:09:33.894Z,64.92
2018-12-16T06:12:10.549Z,68.00
2018-12-16T06:14:46.480Z,63.48
2018-12-16T06:17:21.898Z,70.40
2018-12-16T06:20:00.799Z,67.25
2018-12-16T06:22:36.414Z,68.22
2018-12-16T06:25:14.452Z,68.05
2018-12-16T06:27:50.907Z,69.30
2018-12-16T06:30:29.656Z,67.15
2018-12-16T06:33:05.858Z,67.08
2018-12-16T06:35:43.081Z,74.53
2018-12-16T06:38:22.048Z,75.85
2018-12-16T06:41:00.207Z,74.97
2018-12-16T06:43:36.397Z,82.37
2018-12-16T06:46:13.691Z,76.00
2018-12-16T06:48:53.048Z,80.30
2018-12-16T06:51:31.446Z,83.25
2018-12-16T06:54:06.915Z,78.90
2018-12-16T06:56:49.589Z,77.12
2018-12-16T06:59:25.886Z,81.10
2018-12-16T07:02:02.405Z,81.02
2018-12-16T07:04:41.613Z,89.15
2018-12-16T07:07:18.406Z,85.50
2018-12-16T07:09:58.190Z,86.20
2018-12-16T07:12:35.535Z,92.75
2018-12-16T07:15:11.978Z,88.27
2018-12-16T07:17:49.801Z,90.87
2018-12-16T07:20:26.170Z,89.65
2018-12-16T07:23:03.647Z,103.12
2018-12-16T07:25:42.646Z,85.80
2018-12-16T07:28:22.565Z,107.78
2018-12-16T07:30:59.858Z,100.38
2018-12-16T07:33:36.565Z,98.07
2018-12-16T07:36:14.317Z,111.12
2018-12-16T07:38:50.911Z,105.55
2018-12-16T07:41:27.342Z,114.72
2018-12-16T07:44:04.590Z,100.65
2018-12-16T07:46:42.303Z,106.20
2018-12-16T07:49:17.949Z,113.03
2018-12-16T07:51:53.255Z,114.67
2018-12-16T07:54:29.270Z,112.72
2018-12-16T07:57:05.966Z,120.02
2018-12-16T07:59:43.822Z,119.45
2018-12-16T08:02:19.635Z,125.10
2018-12-16T08:04:55.546Z,120.22
2018-12-16T08:07:31.268Z,131.12
2018-12-16T08:10:07.504Z,215.43
2018-12-16T08:12:44.231Z,136.10
2018-12-16T08:15:20.274Z,149.05
2018-12-16T08:17:56.932Z,152.87
2018-12-16T08:20:32.771Z,138.95
2018-12-16T08:23:08.595Z,130.00
2018-12-16T08:25:44.249Z,141.00
2018-12-16T08:28:20.298Z,152.93
2018-12-16T08:30:56.051Z,145.97
2018-12-16T08:33:31.796Z,146.80
2018-12-16T08:36:07.568Z,144.57
2018-12-16T08:38:43.518Z,156.00
2018-12-16T08:41:19.483Z,164.32
2018-12-16T08:43:58.426Z,155.12
2018-12-16T08:46:34.522Z,155.43
2018-12-16T08:49:09.586Z,154.32
2018-12-16T08:51:45.289Z,163.70
2018-12-16T08:54:21.106Z,182.22
2018-12-16T08:56:56.993Z,175.15
2018-12-16T08:59:32.743Z,194.60
2018-12-16T09:02:08.610Z,181.52
2018-12-16T09:04:44.345Z,167.22
2018-12-16T09:07:20.237Z,176.10
2018-12-16T09:09:55.914Z,195.10
2018-12-16T09:12:31.547Z,193.55
2018-12-16T09:15:07.527Z,163.45
2018-12-16T09:17:43.931Z,199.12
2018-12-16T09:20:19.731Z,195.75
2018-12-16T09:22:56.515Z,209.50
2018-12-16T09:25:32.512Z,172.25
2018-12-16T09:28:08.998Z,164.18
2018-12-16T09:30:44.839Z,201.47
2018-12-16T09:33:21.457Z,170.68
2018-12-16T09:35:57.406Z,197.57
2018-12-16T09:38:33.393Z,216.40
2018-12-16T09:41:09.090Z,198.47
2018-12-16T09:43:45.125Z,223.78
2018-12-16T09:46:21.675Z,195.75
2018-12-16T09:48:56.643Z,214.95
2018-12-16T09:51:32.484Z,222.80
2018-12-16T09:54:08.258Z,204.35
2018-12-16T09:56:44.832Z,228.00
2018-12-16T09:59:21.134Z,228.22
2018-12-16T10:01:56.859Z,183.00
2018-12-16T10:04:32.964Z,232.27
2018-12-16T10:07:09.015Z,202.20
2018-12-16T10:09:45.867Z,226.60
2018-12-16T10:12:21.912Z,232.40
2018-12-16T10:14:57.671Z,232.03
2018-12-16T10:17:33.718Z,186.88
2018-12-16T10:20:11.131Z,221.65
2018-12-16T10:22:47.931Z,243.02
2018-12-16T10:25:23.984Z,247.25
2018-12-16T10:28:00.010Z,232.70
2018-12-16T10:30:36.741Z,226.62
2018-12-16T10:33:12.730Z,191.53
2018-12-16T10:35:48.521Z,214.53
2018-12-16T10:38:24.544Z,251.37
2018-12-16T10:41:00.235Z,268.40
2018-12-16T10:43:36.460Z,243.55
2018-12-16T10:46:13.478Z,303.67
2018-12-16T10:48:49.683Z,272.48
2018-12-16T10:51:25.511Z,276.70
2018-12-16T10:54:01.871Z,231.70
2018-12-16T10:56:38.678Z,201.67
2018-12-16T10:59:14.448Z,293.33
2018-12-16T11:01:51.029Z,182.65
2018-12-16T11:04:27.228Z,250.43
2018-12-16T11:07:03.083Z,230.12
2018-12-16T11:09:38.712Z,305.57
2018-12-16T11:12:14.903Z,212.02
2018-12-16T11:14:51.402Z,225.60
2018-12-16T11:17:27.407Z,292.62
2018-12-16T11:20:03.498Z,217.20
2018-12-16T11:22:40.123Z,218.22
2018-12-16T11:25:17.131Z,204.80
2018-12-16T11:27:52.900Z,258.55
2018-12-16T11:30:28.690Z,300.22
2018-12-16T11:33:05.227Z,275.35
2018-12-16T11:35:40.998Z,219.62
2018-12-16T11:38:16.939Z,227.97
2018-12-16T11:40:52.806Z,328.85
2018-12-16T11:43:29.353Z,244.77
2018-12-16T11:46:05.218Z,250.65
2018-12-16T11:48:41.891Z,253.85
2018-12-16T11:51:17.746Z,169.28
2018-12-16T11:53:54.394Z,246.57
2018-12-16T11:56:30.330Z,217.97
2018-12-16T11:59:07.143Z,227.35
2018-12-16T12:01:43.994Z,284.20
2018-12-16T12:04:21.608Z,246.32
2018-12-16T12:06:57.584Z,215.12
2018-12-16T12:09:33.270Z,204.93
2018-12-16T12:12:09.479Z,173.38
2018-12-16T12:14:46.651Z,277.32
2018-12-16T12:17:22.791Z,223.57
2018-12-16T12:19:58.643Z,255.27
2018-12-16T12:22:34.699Z,169.62
2018-12-16T12:25:10.405Z,211.90
2018-12-16T12:27:49.025Z,166.05
2018-12-16T12:30:25.129Z,191.47
2018-12-16T12:33:01.570Z,229.23
2018-12-16T12:35:37.415Z,243.02
2018-12-16T12:38:13.184Z,167.30
2018-12-16T12:40:49.019Z,154.23
2018-12-16T12:43:25.815Z,214.95
2018-12-16T12:46:02.446Z,182.60
2018-12-16T12:48:39.409Z,251.40
2018-12-16T12:51:16.205Z,211.82
2018-12-16T12:53:51.948Z,215.40
2018-12-16T12:56:27.931Z,182.40
2018-12-16T12:59:03.868Z,184.75
2018-12-16T13:01:39.537Z,239.85
2018-12-16T13:04:16.327Z,182.93
2018-12-16T13:06:52.128Z,210.75
2018-12-16T13:09:29.192Z,201.52
2018-12-16T13:12:05.315Z,177.93
2018-12-16T13:14:41.031Z,179.50
2018-12-16T13:17:16.918Z,168.70
2018-12-16T13:19:52.804Z,140.00
2018-12-16T13:22:28.675Z,163.05
2018-12-16T13:25:15.754Z,199.20
2018-12-16T13:27:52.235Z,158.80
2018-12-16T13:30:28.039Z,120.75
2018-12-16T13:33:03.922Z,171.05
2018-12-16T13:35:39.678Z,149.20
2018-12-16T13:38:15.570Z,194.05
2018-12-16T13:40:52.319Z,148.10
2018-12-16T13:43:28.211Z,180.82
2018-12-16T13:46:03.997Z,146.10
2018-12-16T13:48:40.943Z,159.87
2018-12-16T13:51:16.644Z,183.32
2018-12-16T13:53:52.444Z,172.72
2018-12-16T13:56:28.482Z,134.72
2018-12-16T13:59:04.561Z,112.47
2018-12-16T14:01:41.082Z,144.37
2018-12-16T14:04:16.805Z,146.35
2018-12-16T14:06:52.584Z,162.82
2018-12-16T14:09:28.655Z,149.07
2018-12-16T14:12:05.432Z,169.28
2018-12-16T14:14:40.511Z,155.93
2018-12-16T14:17:16.922Z,134.80
2018-12-16T14:19:52.167Z,127.62
2018-12-16T14:22:27.939Z,142.35
2018-12-16T14:25:04.208Z,110.42
2018-12-16T14:27:40.818Z,113.95
2018-12-16T14:30:16.759Z,109.37
2018-12-16T14:32:52.647Z,138.47
2018-12-16T14:35:27.841Z,137.00
2018-12-16T14:38:04.210Z,141.35
2018-12-16T14:40:39.607Z,107.87
2018-12-16T14:43:15.291Z,175.10
2018-12-16T14:45:50.214Z,143.37
2018-12-16T14:48:25.730Z,151.25
2018-12-16T14:51:00.928Z,169.22
2018-12-16T14:53:37.040Z,139.45
2018-12-16T14:56:13.051Z,158.65
2018-12-16T14:58:49.464Z,134.15
2018-12-16T15:01:24.697Z,172.22
2018-12-16T15:04:00.187Z,104.15
2018-12-16T15:06:36.211Z,172.13
2018-12-16T15:09:12.587Z,172.17
2018-12-16T15:11:48.467Z,128.75
2018-12-16T15:14:24.892Z,196.80
2018-12-16T15:16:59.919Z,181.72
2018-12-16T15:19:35.998Z,179.38
2018-12-16T15:22:11.502Z,152.65
2018-12-16T15:24:46.271Z,172.87
2018-12-16T15:27:21.226Z,147.60
2018-12-16T15:29:57.095Z,167.82
2018-12-16T15:32:32.746Z,143.68
2018-12-16T15:35:08.653Z,153.07
2018-12-16T15:37:44.635Z,142.95
2018-12-16T15:40:20.639Z,128.68
2018-12-16T15:42:56.428Z,167.62
2018-12-16T15:45:32.258Z,140.88
2018-12-16T15:48:07.202Z,116.45
2018-12-16T15:50:43.034Z,114.67
2018-12-16T15:53:17.829Z,111.28
2018-12-16T15:55:53.906Z,115.95
2018-12-16T15:58:29.786Z,87.70
2018-12-16T16:01:06.590Z,111.95
2018-12-16T16:03:42.514Z,124.50
2018-12-16T16:06:18.376Z,113.72
2018-12-16T16:08:53.879Z,130.78
2018-12-16T16:11:29.822Z,133.52
2018-12-16T16:14:05.842Z,127.47
2018-12-16T16:16:42.395Z,133.87
2018-12-16T16:19:17.304Z,147.98
2018-12-16T16:21:53.790Z,162.20
2018-12-16T16:24:29.857Z,115.22
2018-12-16T16:27:04.997Z,140.10
2018-12-16T16:29:40.611Z,118.55
2018-12-16T16:32:15.807Z,125.90
2018-12-16T16:34:51.387Z,147.02
2018-12-16T16:37:27.540Z,121.90
2018-12-16T16:40:03.691Z,150.40
2018-12-16T16:42:39.235Z,138.95
2018-12-16T16:45:14.597Z,143.22
2018-12-16T16:47:50.687Z,103.72
2018-12-16T16:50:27.435Z,135.00
2018-12-16T16:53:02.566Z,161.03
2018-12-16T16:55:38.438Z,128.65
2018-12-16T16:58:14.321Z,119.37
2018-12-16T17:00:50.187Z,106.27
2018-12-16T17:03:26.203Z,149.32
2018-12-16T17:06:02.184Z,149.07
2018-12-16T17:08:37.978Z,146.72
2018-12-16T17:11:13.270Z,164.07
2018-12-16T17:13:49.096Z,162.50
2018-12-16T17:16:25.300Z,194.87
2018-12-16T17:19:02.021Z,185.65
2018-12-16T17:21:38.045Z,159.40
2018-12-16T17:24:13.731Z,182.93
2018-12-16T17:26:49.617Z,188.80
2018-12-16T17:29:25.584Z,185.18
2018-12-16T17:32:01.375Z,121.85
2018-12-16T17:34:38.247Z,169.77
2018-12-16T17:37:13.928Z,161.47
2018-12-16T17:39:48.993Z,195.12
2018-12-16T17:42:24.218Z,170.90
2018-12-16T17:45:00.011Z,147.05
2018-12-16T17:47:35.966Z,158.18
2018-12-16T17:50:11.912Z,152.05
2018-12-16T17:52:48.702Z,117.03
2018-12-16T17:55:25.470Z,189.75
2018-12-16T17:58:00.921Z,183.70
2018-12-16T18:00:36.211Z,170.40
2018-12-16T18:03:12.122Z,204.65
2018-12-16T18:05:47.864Z,152.55
2018-12-16T18:08:23.807Z,190.10
2018-12-16T18:10:59.679Z,200.60
2018-12-16T18:13:35.413Z,197.95
2018-12-16T18:16:11.483Z,182.12
2018-12-16T18:18:48.052Z,180.80
2018-12-16T18:21:24.668Z,219.00
2018-12-16T18:23:59.730Z,166.15
2018-12-16T18:26:36.571Z,287.40
2018-12-16T18:29:12.443Z,178.80
2018-12-16T18:31:48.271Z,173.72
2018-12-16T18:34:24.822Z,229.23
2018-12-16T18:36:59.878Z,206.38
2018-12-16T18:39:35.718Z,116.77
2018-12-16T18:42:12.829Z,155.15
2018-12-16T18:44:48.803Z,176.42
2018-12-16T18:47:25.719Z,230.67
2018-12-16T18:50:01.535Z,239.40
2018-12-16T18:52:36.548Z,171.72
2018-12-16T18:55:11.635Z,197.65
2018-12-16T18:57:47.432Z,170.57
2018-12-16T19:00:23.182Z,215.68
2018-12-16T19:02:58.986Z,254.97
2018-12-16T19:05:34.990Z,216.53
2018-12-16T19:08:10.785Z,221.60
2018-12-16T19:10:46.346Z,190.70
2018-12-16T19:13:22.206Z,183.18
2018-12-16T19:16:00.113Z,161.70
2018-12-16T19:18:36.802Z,195.68
2018-12-16T19:21:11.742Z,177.45
2018-12-16T19:23:48.615Z,171.55
2018-12-16T19:26:24.502Z,160.85
2018-12-16T19:28:59.562Z,173.60
2018-12-16T19:31:35.911Z,184.13
2018-12-16T19:34:11.686Z,193.62
2018-12-16T19:36:48.300Z,183.97
2018-12-16T19:39:23.422Z,175.53
2018-12-16T19:41:58.981Z,199.23
2018-12-16T19:44:34.918Z,187.80
2018-12-16T19:47:10.931Z,183.70
2018-12-16T19:49:46.679Z,167.47
2018-12-16T19:52:22.418Z,148.75
2018-12-16T19:54:57.875Z,144.05
2018-12-16T19:57:33.383Z,151.00
2018-12-16T20:00:09.321Z,181.67
2018-12-16T20:02:45.083Z,174.70
2018-12-16T20:05:20.542Z,159.78
2018-12-16T20:07:56.030Z,167.43
2018-12-16T20:10:33.002Z,209.47
2018-12-16T20:13:08.805Z,179.95
2018-12-16T20:15:44.450Z,159.63
2018-12-16T20:18:20.674Z,177.62
2018-12-16T20:20:56.493Z,182.22
2018-12-16T20:23:32.328Z,177.05
2018-12-16T20:26:09.010Z,196.35
2018-12-16T20:28:44.128Z,177.05
2018-12-16T20:31:19.926Z,190.05
2018-12-16T20:33:56.010Z,177.25
2018-12-16T20:36:31.777Z,161.65
2018-12-16T20:39:08.162Z,171.53
2018-12-16T20:41:45.265Z,156.78
2018-12-16T20:44:22.347Z,153.05
2018-12-16T20:46:57.765Z,159.57
2018-12-16T20:49:33.483Z,166.20
2018-12-16T20:52:08.424Z,174.05
2018-12-16T20:54:44.535Z,162.12
2018-12-16T20:57:20.754Z,160.90
2018-12-16T20:59:56.408Z,132.60
2018-12-16T21:02:34.333Z,155.22
2018-12-16T21:05:10.358Z,153.82
2018-12-16T21:07:46.138Z,137.55
2018-12-16T21:10:33.146Z,126.22
2018-12-16T21:13:14.833Z,140.45
2018-12-16T21:15:56.794Z,137.82
2018-12-16T21:18:32.228Z,161.43
2018-12-16T21:21:07.166Z,159.27
2018-12-16T21:23:42.732Z,135.55
2018-12-16T21:26:19.983Z,146.57
2018-12-16T21:28:54.859Z,137.50
2018-12-16T21:31:31.264Z,153.68
2018-12-16T21:34:06.814Z,160.52
2018-12-16T21:36:43.069Z,171.28
2018-12-16T21:39:19.263Z,170.17
2018-12-16T21:41:54.842Z,158.82
2018-12-16T21:44:30.791Z,135.68
2018-12-16T21:47:06.458Z,134.93
2018-12-16T21:49:42.478Z,145.60
2018-12-16T21:52:18.788Z,195.53
2018-12-16T21:54:53.939Z,183.00
2018-12-16T21:57:32.957Z,196.80
2018-12-16T22:00:09.424Z,156.05
2018-12-16T22:02:44.672Z,180.48
2018-12-16T22:05:24.793Z,128.72
2018-12-16T22:08:00.640Z,143.07
2018-12-16T22:10:35.870Z,147.00
2018-12-16T22:13:11.765Z,144.00
2018-12-16T22:15:48.265Z,144.02
2018-12-16T22:18:23.585Z,181.57
2018-12-16T22:20:59.469Z,151.45
2018-12-16T22:23:34.642Z,153.10
2018-12-16T22:26:10.484Z,140.50
2018-12-16T22:28:47.300Z,131.55
2018-12-16T22:31:22.973Z,155.37
2018-12-16T22:33:58.529Z,197.37
2018-12-16T22:36:34.563Z,190.03
2018-12-16T22:39:10.323Z,201.60
2018-12-16T22:41:45.980Z,186.00
2018-12-16T22:44:22.669Z,182.95
2018-12-16T22:46:57.893Z,174.65
2018-12-16T22:49:33.053Z,155.85
2018-12-16T22:52:08.957Z,159.57
2018-12-16T22:54:44.049Z,146.93
2018-12-16T22:57:19.927Z,143.85
2018-12-16T22:59:55.082Z,151.90
2018-12-16T23:02:30.961Z,141.30
2018-12-16T23:05:06.608Z,153.15
2018-12-16T23:07:42.730Z,158.35
2018-12-16T23:10:18.526Z,147.13
2018-12-16T23:12:54.331Z,129.12
2018-12-16T23:15:30.277Z,142.40
2018-12-16T23:18:06.438Z,150.62
2018-12-16T23:20:42.221Z,146.53
2018-12-16T23:23:18.074Z,130.15
2018-12-16T23:25:53.853Z,146.37
2018-12-16T23:28:29.338Z,162.82
2018-12-16T23:31:05.495Z,157.00
2018-12-16T23:33:40.659Z,142.18
2018-12-16T23:36:16.595Z,115.97
2018-12-16T23:38:51.548Z,128.20
2018-12-16T23:41:28.257Z,126.47
2018-12-16T23:44:03.183Z,124.58
2018-12-16T23:46:38.930Z,121.57
2018-12-16T23:49:13.805Z,120.17
2018-12-16T23:51:49.746Z,131.93
2018-12-16T23:54:24.567Z,125.25
2018-12-16T23:56:59.650Z,122.90
2018-12-16T23:59:34.625Z,124.55
